Time;durP1;ratioP1;P1;durP2;ratioP2;P2;SDS_P1;SDS_P2;PMS_P1;PMS_P2;Temp;Humidity;BMP_temperature;BMP_pressure;BME280_temperature;BME280_humidity;BME280_pressure;Samples;Min_cycle;Max_cycle;Signal;HPM_P1;HPM_P2
2023/01/08 00:00:27;;;;;;;;;7.25;6.00;;;;;9.75;100.00;99704.56;4875516;29;44878;-91
2023/01/08 00:03:01;;;;;;;;;4.00;4.00;;;;;9.33;100.00;99617.88;4881217;29;46772;-93
2023/01/08 00:05:29;;;;;;;;;6.00;6.00;;;;;10.10;100.00;99747.50;4888527;29;45611;-90
2023/01/08 00:07:57;;;;;;;;;9.50;7.00;;;;;8.64;99.31;99502.19;4877580;29;45370;-92
2023/01/08 00:10:22;;;;;;;;;6.75;6.75;;;;;9.01;100.00;99574.03;4876895;29;45488;-91
2023/01/08 00:12:55;;;;;;;;;5.50;5.50;;;;;10.08;100.00;99737.88;4869476;29;47039;-92
2023/01/08 00:15:36;;;;;;;;;;;;;;;;;;;;;
2023/01/08 00:18:05;;;;;;;;;5.75;5.25;;;;;8.79;99.12;99526.34;4882825;29;67472;-91
2023/01/08 00:20:36;;;;;;;;;5.00;5.00;;;;;8.99;99.27;99552.16;4866623;29;45603;-91
2023/01/08 00:23:12;;;;;;;;;6.50;6.00;;;;;8.24;99.47;99440.09;4867396;29;47459;-91
2023/01/08 00:25:41;;;;;;;;;5.50;4.00;;;;;9.59;98.92;99682.19;4892185;29;45489;-91
2023/01/08 00:28:13;;;;;;;;;7.25;6.25;;;;;9.68;99.40;99700.38;4876109;29;45262;-90
2023/01/08 00:30:51;;;;;;;;;5.00;5.00;;;;;9.23;99.26;99611.16;4871802;29;45372;-89
2023/01/08 00:33:19;;;;;;;;;6.00;6.00;;;;;9.64;99.88;99675.03;4880802;29;48274;-94
2023/01/08 00:35:48;;;;;;;;;3.00;2.00;;;;;7.88;99.76;99379.72;4880943;29;45280;-93
2023/01/08 00:38:41;;;;;;;;;4.00;4.00;;;;;8.88;99.55;99547.16;4871311;29;45383;-91
2023/01/08 00:41:19;;;;;;;;;6.75;4.75;;;;;7.91;99.28;99377.00;4869149;29;45501;-92
2023/01/08 00:43:50;;;;;;;;;12.75;5.50;;;;;9.99;98.95;99723.22;4872856;29;46807;-92
2023/01/08 00:46:16;;;;;;;;;1.00;1.00;;;;;8.88;99.40;99547.16;4891781;29;45415;-91
2023/01/08 00:48:47;;;;;;;;;4.75;4.75;;;;;9.56;99.81;99648.00;4872746;29;45506;-91
2023/01/08 00:51:13;;;;;;;;;5.25;3.75;;;;;8.45;99.51;99464.97;4870190;29;45426;-92
2023/01/08 00:53:41;;;;;;;;;4.00;4.00;;;;;8.60;99.74;99479.47;4865264;29;47073;-91
2023/01/08 00:56:10;;;;;;;;;9.00;5.00;;;;;9.34;98.97;99606.44;4866914;29;45498;-91
2023/01/08 00:58:39;;;;;;;;;5.00;5.00;;;;;8.03;99.28;99372.28;4872160;29;45507;-91
2023/01/08 01:01:13;;;;;;;;;5.25;5.00;;;;;9.65;98.19;99655.63;4868438;29;45295;-91
2023/01/08 01:03:45;;;;;;;;;1.75;1.75;;;;;9.54;97.81;99652.47;4871032;29;46739;-90
2023/01/08 01:06:12;;;;;;;;;6.00;5.00;;;;;8.83;97.85;99526.22;4878190;29;45450;-91
2023/01/08 01:08:38;;;;;;;;;6.00;6.00;;;;;9.70;98.46;99679.22;4868932;29;45288;-93
2023/01/08 01:11:17;;;;;;;;;7.50;5.00;;;;;8.02;98.04;99381.94;4872869;29;45259;-93
2023/01/08 01:13:46;;;;;;;;;4.00;4.00;;;;;9.21;98.30;99576.06;4885716;29;46865;-93
2023/01/08 01:16:15;;;;;;;;;4.75;4.75;;;;;8.59;98.08;99469.00;4854683;29;45267;-92
2023/01/08 01:18:47;;;;;;;;;3.00;3.00;;;;;8.00;97.04;99370.59;4857068;29;45185;-94
2023/01/08 01:21:36;;;;;;;;;4.25;3.00;;;;;9.85;97.66;99699.00;4873686;29;45215;-92
2023/01/08 01:24:06;;;;;;;;;5.00;4.50;;;;;9.83;97.31;99680.56;4875473;29;48143;-92
2023/01/08 01:26:37;;;;;;;;;4.25;3.25;;;;;7.85;98.26;99353.50;4861691;29;45156;-94
2023/01/08 01:29:03;;;;;;;;;2.00;1.00;;;;;9.82;97.78;99685.91;4877685;29;45278;-91
2023/01/08 01:31:30;;;;;;;;;3.00;3.00;;;;;9.39;98.43;99622.97;4875107;29;45500;-92
2023/01/08 01:34:01;;;;;;;;;3.25;3.25;;;;;7.89;98.62;99362.16;4872886;29;47153;-91
2023/01/08 01:36:30;;;;;;;;;6.25;5.00;;;;;7.95;97.84;99370.72;4866088;29;45484;-90
2023/01/08 01:38:58;;;;;;;;;4.00;4.00;;;;;8.38;98.69;99463.41;4841692;29;45383;-90
2023/01/08 01:41:40;;;;;;;;;2.00;2.00;;;;;9.77;97.49;99673.72;4868992;29;45264;-91
2023/01/08 01:44:46;;;;;;;;;4.75;3.75;;;;;9.76;96.98;99685.19;4847944;29;47516;-90
2023/01/08 01:47:31;;;;;;;;;4.00;2.00;;;;;9.71;97.50;99687.09;4849013;29;45391;-90
2023/01/08 01:53:07;;;;;;;;;3.00;3.00;;;;;9.29;97.22;99629.44;4873861;29;45036;-90
2023/01/08 01:55:36;;;;;;;;;4.00;4.00;;;;;9.68;97.10;99716.22;4851855;29;46729;-90
2023/01/08 01:58:16;;;;;;;;;5.25;4.75;;;;;8.92;97.63;99563.78;4851042;29;45482;-91
2023/01/08 02:00:45;;;;;;;;;7.25;3.00;;;;;8.98;98.04;99574.97;4854090;29;45320;-90
2023/01/08 02:03:15;;;;;;;;;3.00;2.00;;;;;9.23;98.18;99622.59;4866768;29;45608;-92
2023/01/08 02:06:01;;;;;;;;;2.75;2.75;;;;;9.65;97.75;99703.13;4853235;29;48250;-89
2023/01/08 02:09:05;;;;;;;;;4.75;4.00;;;;;9.62;96.68;99700.56;4858256;29;45434;-88
2023/01/08 02:15:38;;;;;;;;;1.75;1.75;;;;;9.59;97.36;99711.22;4872646;29;45393;-89
2023/01/08 02:18:35;;;;;;;;;2.00;2.00;;;;;8.13;97.31;99461.47;4828591;29;47064;-94
2023/01/08 02:21:10;;;;;;;;;3.00;3.00;;;;;8.94;98.00;99607.59;4826539;29;45345;-95
2023/01/08 02:24:12;;;;;;;;;2.50;2.50;;;;;8.45;97.42;99506.25;4832772;29;45264;-94
2023/01/08 02:26:39;;;;;;;;;5.25;4.00;;;;;8.90;98.16;99598.06;4830938;29;45480;-92
2023/01/08 02:29:19;;;;;;;;;2.50;1.75;;;;;8.59;97.17;99554.13;4816496;29;48263;-92
2023/01/08 02:31:46;;;;;;;;;2.00;2.00;;;;;8.53;97.31;99535.88;4833221;29;45305;-91
2023/01/08 02:34:12;;;;;;;;;2.00;1.25;;;;;7.98;97.18;99439.03;4834962;29;45391;-92
2023/01/08 02:36:40;;;;;;;;;2.25;1.00;;;;;8.08;97.84;99457.25;4815660;29;45408;-92
2023/01/08 02:39:29;;;;;;;;;3.75;2.00;;;;;9.57;98.15;99711.25;4824584;29;48017;-91
2023/01/08 02:42:32;;;;;;;;;2.00;2.00;;;;;9.58;97.83;99698.91;4825361;29;45422;-91
2023/01/08 02:45:05;;;;;;;;;2.00;2.00;;;;;9.60;98.48;99699.75;4830424;29;45294;-92
2023/01/08 02:47:46;;;;;;;;;3.25;3.25;;;;;8.11;98.06;99450.13;4817958;29;45425;-89
2023/01/08 02:50:20;;;;;;;;;1.75;1.75;;;;;9.60;98.43;99710.31;4850073;29;47086;-90
2023/01/08 02:53:15;;;;;;;;;2.50;2.50;;;;;8.78;98.09;99562.38;4846813;29;45402;-91
2023/01/08 02:55:47;;;;;;;;;4.25;3.00;;;;;8.70;97.98;99544.16;4850474;29;45516;-90
2023/01/08 02:58:15;;;;;;;;;1.00;1.00;;;;;9.65;99.26;99697.84;4852824;29;45296;-91
2023/01/08 03:00:45;;;;;;;;;2.00;2.00;;;;;8.41;98.53;99496.69;4852566;29;46487;-90
2023/01/08 03:03:20;;;;;;;;;2.00;2.00;;;;;9.29;98.32;99626.78;4888935;29;45444;-91
2023/01/08 03:05:55;;;;;;;;;3.00;1.75;;;;;8.15;97.93;99441.25;4866777;29;45397;-91
2023/01/08 03:08:25;;;;;;;;;2.00;2.00;;;;;8.28;96.19;99473.34;4867862;29;45453;-91
2023/01/08 03:10:58;;;;;;;;;2.50;2.50;;;;;8.50;98.37;99512.25;4870328;29;46806;-91
2023/01/08 03:13:31;;;;;;;;;2.50;1.50;;;;;9.62;98.51;99692.66;4864693;29;46042;-90
2023/01/08 03:16:02;;;;;;;;;2.00;2.00;;;;;9.61;98.07;99698.84;4869531;29;45401;-91
2023/01/08 03:18:35;;;;;;;;;2.75;1.00;;;;;9.45;98.17;99644.81;4873544;29;45409;-91
2023/01/08 03:21:04;;;;;;;;;4.00;4.00;;;;;7.86;96.51;99392.03;4874131;29;47395;-91
2023/01/08 03:23:33;;;;;;;;;3.00;3.00;;;;;7.72;97.82;99362.63;4875115;29;45997;-94
2023/01/08 03:26:01;;;;;;;;;4.00;2.75;;;;;7.67;97.44;99338.19;4875198;29;45349;-93
2023/01/08 03:28:33;;;;;;;;;5.00;2.25;;;;;8.35;98.25;99459.09;4870095;29;45607;-93
2023/01/08 03:31:01;;;;;;;;;1.00;1.00;;;;;8.50;97.69;99483.28;4892384;29;46909;-92
2023/01/08 03:33:30;;;;;;;;;1.00;1.00;;;;;7.85;97.86;99392.94;4899029;29;45388;-91
2023/01/08 03:36:00;;;;;;;;;3.25;3.25;;;;;8.46;97.71;99486.94;4875505;29;45367;-92
2023/01/08 03:38:30;;;;;;;;;1.00;1.00;;;;;9.62;98.75;99663.63;4871637;29;45536;-92
2023/01/08 03:41:01;;;;;;;;;2.00;2.00;;;;;8.40;97.44;99458.97;4877046;29;46943;-91
2023/01/08 03:43:28;;;;;;;;;1.75;1.75;;;;;8.64;98.38;99501.31;4893289;29;45412;-92
2023/01/08 03:45:59;;;;;;;;;2.50;2.00;;;;;8.98;98.16;99542.50;4870082;29;45344;-92
2023/01/08 03:48:30;;;;;;;;;1.75;1.75;;;;;8.55;98.87;99502.47;4874415;29;45261;-92
2023/01/08 03:50:56;;;;;;;;;2.00;2.00;;;;;9.58;98.67;99660.22;4891001;29;48411;-91
2023/01/08 03:53:21;;;;;;;;;2.00;2.00;;;;;8.09;98.24;99419.47;4876993;29;45341;-90
2023/01/08 03:55:49;;;;;;;;;1.00;1.00;;;;;8.76;98.73;99526.44;4881832;29;45297;-92
2023/01/08 03:58:15;;;;;;;;;2.00;1.00;;;;;9.57;99.15;99647.94;4879118;29;45284;-92
2023/01/08 04:00:41;;;;;;;;;1.00;1.00;;;;;8.03;98.08;99414.38;4876302;29;46122;-91
2023/01/08 04:03:06;;;;;;;;;2.25;1.00;;;;;7.55;96.78;99313.97;4874634;29;45179;-91
2023/01/08 04:05:33;;;;;;;;;1.25;1.25;;;;;7.44;97.92;99300.28;4872430;29;45404;-91
2023/01/08 04:07:58;;;;;;;;;1.50;1.50;;;;;9.49;97.99;99651.72;4877698;29;45380;-92
2023/01/08 04:10:25;;;;;;;;;1.00;1.00;;;;;8.36;98.45;99450.28;4894685;29;46587;-92
2023/01/08 04:12:51;;;;;;;;;1.00;1.00;;;;;9.07;97.82;99564.16;4890830;29;45374;-91
2023/01/08 04:15:18;;;;;;;;;2.00;2.00;;;;;9.48;97.57;99640.31;4885623;29;45265;-91
2023/01/08 04:17:43;;;;;;;;;1.00;1.00;;;;;8.19;97.65;99413.03;4867461;29;45363;-92
2023/01/08 04:20:09;;;;;;;;;4.00;1.75;;;;;7.90;97.50;99380.53;4871160;29;46626;-91
2023/01/08 04:22:49;;;;;;;;;1.00;0.75;;;;;7.90;98.37;99350.72;4871517;29;45412;-92
2023/01/08 04:25:18;;;;;;;;;1.00;1.00;;;;;9.50;98.11;99611.25;4871484;29;45353;-92
2023/01/08 04:27:43;;;;;;;;;1.75;1.75;;;;;7.98;97.17;99348.72;4875733;29;45376;-91
2023/01/08 04:30:09;;;;;;;;;2.00;2.00;;;;;9.07;98.00;99550.13;4874015;29;47140;-92
2023/01/08 04:32:35;;;;;;;;;2.00;1.50;;;;;8.51;97.84;99450.78;4875408;29;45394;-92
2023/01/08 04:35:01;;;;;;;;;2.00;2.00;;;;;9.01;97.87;99523.97;4872919;29;45306;-92
2023/01/08 04:37:27;;;;;;;;;4.75;2.00;;;;;8.70;97.57;99473.03;4886085;29;45398;-91
2023/01/08 04:39:52;;;;;;;;;2.50;1.50;;;;;8.49;96.68;99444.72;4870505;29;47079;-90
2023/01/08 04:42:18;;;;;;;;;4.50;1.25;;;;;8.85;96.34;99516.53;4875477;29;45411;-92
2023/01/08 04:44:43;;;;;;;;;2.00;2.00;;;;;9.04;96.67;99531.78;4876943;29;45546;-90
2023/01/08 04:47:12;;;;;;;;;2.75;1.00;;;;;7.88;96.47;99331.47;4886881;29;45423;-91
2023/01/08 04:49:37;;;;;;;;;1.00;1.00;;;;;8.26;95.53;99401.44;4872681;29;47976;-93
2023/01/08 04:52:03;;;;;;;;;1.00;1.00;;;;;8.65;96.17;99456.50;4868812;29;45202;-93
2023/01/08 04:54:29;;;;;;;;;1.50;1.50;;;;;8.88;97.18;99505.00;4884302;29;45284;-92
2023/01/08 04:56:54;;;;;;;;;0.00;0.00;;;;;8.28;97.06;99401.41;4870507;29;45261;-93
2023/01/08 04:59:20;;;;;;;;;1.25;1.00;;;;;9.40;97.47;99587.78;4876250;29;46295;-93
2023/01/08 05:01:45;;;;;;;;;1.75;0.50;;;;;8.28;97.06;99386.44;4877365;29;45287;-92
2023/01/08 05:04:11;;;;;;;;;1.00;1.00;;;;;7.84;97.38;99299.13;4880169;29;45199;-93
2023/01/08 05:06:36;;;;;;;;;3.00;2.00;;;;;8.41;97.95;99404.50;4896399;29;45274;-92
2023/01/08 05:09:03;;;;;;;;;1.25;1.25;;;;;9.00;98.25;99503.78;4877945;29;47418;-92
2023/01/08 05:11:28;;;;;;;;;1.75;0.75;;;;;8.75;98.35;99469.41;4880161;29;45324;-94
2023/01/08 05:13:55;;;;;;;;;3.00;1.25;;;;;9.20;98.15;99537.44;4888076;29;45350;-94
2023/01/08 05:16:22;;;;;;;;;1.00;1.00;;;;;8.64;98.92;99444.25;4886266;29;45308;-93
2023/01/08 05:18:50;;;;;;;;;1.25;1.25;;;;;8.22;98.52;99376.09;4873343;29;46911;-92
2023/01/08 05:21:16;;;;;;;;;2.00;2.00;;;;;8.93;98.70;99508.38;4874342;29;45167;-91
2023/01/08 05:23:46;;;;;;;;;1.00;1.00;;;;;7.46;98.25;99240.63;4876321;29;45263;-93
2023/01/08 05:26:12;;;;;;;;;0.00;0.00;;;;;7.24;98.58;99219.31;4885308;29;45302;-93
2023/01/08 05:28:37;;;;;;;;;2.00;2.00;;;;;7.44;98.20;99239.81;4886316;29;46800;-93
2023/01/08 05:31:06;;;;;;;;;0.50;0.50;;;;;7.93;97.47;99325.19;4883111;29;44616;-92
2023/01/08 05:33:32;;;;;;;;;0.50;0.00;;;;;8.56;98.27;99433.06;4893444;29;45339;-93
2023/01/08 05:35:59;;;;;;;;;2.00;2.00;;;;;8.10;97.19;99373.84;4856895;29;45267;-93
2023/01/08 05:38:24;;;;;;;;;1.00;1.00;;;;;8.78;99.11;99500.94;4888832;29;48781;-93
2023/01/08 05:40:55;;;;;;;;;0.50;0.50;;;;;8.49;98.54;99464.00;4870440;29;45375;-94
2023/01/08 05:43:21;;;;;;;;;0.75;0.75;;;;;7.54;99.84;99342.94;4856007;29;45261;-93
2023/01/08 05:45:58;;;;;;;;;0.00;0.00;;;;;7.15;100.00;99277.38;4858157;29;44994;-94
2023/01/08 05:48:43;;;;;;;;;;;;;;;;;;;;;
2023/01/08 05:51:32;;;;;;;;;0.00;0.00;;;;;8.97;100.00;99610.16;4888005;29;73490;-93
2023/01/08 05:53:58;;;;;;;;;0.00;0.00;;;;;7.76;100.00;99432.66;4855008;29;45310;-93
2023/01/08 05:56:35;;;;;;;;;0.00;0.00;;;;;7.98;100.00;99454.84;4835887;29;45296;-93
2023/01/08 05:59:09;;;;;;;;;0.00;0.00;;;;;7.60;100.00;99385.69;4834673;29;47144;-92
2023/01/08 06:01:37;;;;;;;;;0.00;0.00;;;;;7.51;99.94;99404.34;4839911;29;44744;-92
2023/01/08 06:04:11;;;;;;;;;0.00;0.00;;;;;6.48;99.74;99250.16;4851440;29;44779;-92
2023/01/08 06:07:02;;;;;;;;;0.00;0.00;;;;;7.94;100.00;99500.56;4850014;29;45242;-93
2023/01/08 06:09:45;;;;;;;;;0.00;0.00;;;;;7.24;99.88;99408.53;4854007;29;45658;-93
2023/01/08 06:12:33;;;;;;;;;0.00;0.00;;;;;7.50;99.74;99446.47;4852966;29;45388;-93
2023/01/08 06:15:08;;;;;;;;;0.00;0.00;;;;;6.68;99.25;99340.72;4849144;29;45270;-92
2023/01/08 06:17:37;;;;;;;;;0.00;0.00;;;;;6.68;99.00;99332.84;4841126;29;44854;-92
2023/01/08 06:20:04;;;;;;;;;1.00;0.00;;;;;6.88;99.93;99401.53;4870099;29;46798;-93
2023/01/08 06:23:00;;;;;;;;;0.00;0.00;;;;;6.83;99.43;99407.78;4870214;29;44791;-92
2023/01/08 06:25:33;;;;;;;;;0.00;0.00;;;;;6.67;98.97;99410.75;4885489;29;45338;-93
2023/01/08 06:28:00;;;;;;;;;0.00;0.00;;;;;6.09;99.52;99314.91;4890113;29;45289;-91
2023/01/08 06:30:33;;;;;;;;;0.00;0.00;;;;;7.06;98.93;99484.31;4895421;29;45739;-93
2023/01/08 06:33:46;;;;;;;;;0.00;0.00;;;;;6.78;98.63;99436.78;4877835;29;45308;-91
2023/01/08 06:39:43;;;;;;;;;0.00;0.00;;;;;6.63;99.39;99450.25;4891913;29;45326;-93
2023/01/08 06:42:17;;;;;;;;;0.00;0.00;;;;;7.46;99.29;99600.81;4879986;29;46193;-93
2023/01/08 06:44:49;;;;;;;;;0.00;0.00;;;;;7.05;99.70;99524.63;4880299;29;45508;-92
2023/01/08 06:47:20;;;;;;;;;0.00;0.00;;;;;5.38;99.13;99270.00;4874519;29;45372;-92
2023/01/08 06:50:05;;;;;;;;;1.00;0.00;;;;;5.64;98.84;99308.81;4856566;29;45276;-94
2023/01/08 06:52:36;;;;;;;;;0.00;0.00;;;;;5.40;99.12;99278.69;4854647;29;47602;-93
2023/01/08 06:55:21;;;;;;;;;0.00;0.00;;;;;7.29;99.95;99594.16;4875093;29;45436;-93
2023/01/08 06:58:03;;;;;;;;;0.00;0.00;;;;;5.75;99.48;99353.16;4847703;29;44858;-93
2023/01/08 07:00:33;;;;;;;;;0.25;0.25;;;;;5.32;99.70;99286.72;4875627;29;45416;-92
2023/01/08 07:06:21;;;;;;;;;0.00;0.00;;;;;5.38;99.21;99279.63;4892610;29;45435;-92
2023/01/08 07:09:06;;;;;;;;;0.00;0.00;;;;;5.39;99.63;99307.56;4870563;29;45451;-92
2023/01/08 07:11:41;;;;;;;;;1.00;0.00;;;;;5.54;99.61;99343.09;4875412;29;44935;-92
2023/01/08 07:14:10;;;;;;;;;0.00;0.00;;;;;5.75;99.97;99358.41;4890651;29;47942;-93
2023/01/08 07:16:50;;;;;;;;;0.00;0.00;;;;;6.16;99.83;99427.56;4879879;29;45271;-92
2023/01/08 07:19:42;;;;;;;;;2.00;0.00;;;;;5.49;99.52;99309.97;4865620;29;45289;-92
2023/01/08 07:22:32;;;;;;;;;0.00;0.00;;;;;5.58;99.41;99329.91;4857680;29;45495;-95
2023/01/08 07:25:37;;;;;;;;;0.00;0.00;;;;;5.49;99.59;99335.31;4876319;29;46833;-94
2023/01/08 07:28:08;;;;;;;;;0.00;0.00;;;;;6.76;100.00;99522.63;4890015;29;45325;-94
2023/01/08 07:30:43;;;;;;;;;0.00;0.00;;;;;5.47;99.05;99303.03;4873467;29;45390;-92
2023/01/08 07:33:22;;;;;;;;;0.00;0.00;;;;;6.51;100.00;99485.50;4880665;29;45432;-91
2023/01/08 07:36:23;;;;;;;;;0.00;0.00;;;;;4.73;99.50;99197.88;4880972;29;47605;-93
2023/01/08 07:39:16;;;;;;;;;1.00;0.00;;;;;5.57;99.62;99315.06;4876836;29;45355;-92
2023/01/08 07:41:48;;;;;;;;;0.25;0.25;;;;;5.10;100.00;99233.88;4891269;29;45227;-92
2023/01/08 07:49:14;;;;;;;;;;;;;;;;;;;;;
2023/01/08 07:52:09;;;;;;;;;2.50;0.25;;;;;6.04;99.27;99380.59;4847065;29;45303;-94
2023/01/08 07:54:52;;;;;;;;;1.50;1.50;;;;;5.60;100.00;99316.75;4876494;29;45422;-95
2023/01/08 08:00:45;;;;;;;;;0.00;0.00;;;;;6.99;100.00;99526.53;4863782;29;45325;-92
2023/01/08 08:03:18;;;;;;;;;1.00;1.00;;;;;6.94;100.00;99514.34;4867040;29;45481;-92
2023/01/08 08:05:44;;;;;;;;;0.00;0.00;;;;;5.76;100.00;99327.81;4857621;29;45387;-91
2023/01/08 08:08:30;;;;;;;;;1.50;1.00;;;;;7.20;100.00;99549.69;4856251;29;44923;-92
2023/01/08 08:10:56;;;;;;;;;0.00;0.00;;;;;6.86;100.00;99494.38;4852160;29;46252;-91
2023/01/08 08:13:21;;;;;;;;;1.00;1.00;;;;;5.96;100.00;99345.78;4874405;29;44798;-92
2023/01/08 08:15:47;;;;;;;;;0.00;0.00;;;;;7.36;100.00;99570.38;4857707;29;45313;-91
2023/01/08 08:18:15;;;;;;;;;0.00;0.00;;;;;6.73;100.00;99436.03;4853057;29;45402;-92
2023/01/08 08:20:40;;;;;;;;;0.00;0.00;;;;;5.93;100.00;99303.88;4867228;29;47416;-92
2023/01/08 08:23:12;;;;;;;;;0.00;0.00;;;;;6.73;100.00;99428.16;4854844;29;45240;-92
2023/01/08 08:25:39;;;;;;;;;0.50;0.50;;;;;5.83;100.00;99272.59;4857826;29;45231;-90
2023/01/08 08:28:12;;;;;;;;;0.00;0.00;;;;;5.99;100.00;99298.53;4867528;29;45305;-92
2023/01/08 08:33:38;;;;;;;;;0.00;0.00;;;;;6.93;100.00;99425.91;4835318;29;45184;-90
2023/01/08 08:36:04;;;;;;;;;0.00;0.00;;;;;6.90;100.00;99418.09;4828406;29;45597;-89
2023/01/08 08:38:30;;;;;;;;;1.00;1.00;;;;;7.81;100.00;99551.78;4842188;29;45487;-90
2023/01/08 08:40:55;;;;;;;;;0.00;0.00;;;;;5.70;100.00;99188.06;4849345;29;46339;-90
2023/01/08 08:43:32;;;;;;;;;1.25;1.25;;;;;7.15;100.00;99419.28;4822954;29;45578;-89
2023/01/08 08:45:58;;;;;;;;;1.00;1.00;;;;;6.78;100.00;99357.13;4831530;29;45470;-89
2023/01/08 08:48:23;;;;;;;;;0.00;0.00;;;;;5.84;100.00;99185.13;4827454;29;45596;-90
2023/01/08 08:50:52;;;;;;;;;0.00;0.00;;;;;6.91;100.00;99364.69;4863437;29;45432;-90
2023/01/08 08:53:17;;;;;;;;;0.00;0.00;;;;;7.61;100.00;99476.84;4847625;29;45524;-90
2023/01/08 08:55:50;;;;;;;;;0.00;0.00;;;;;7.61;100.00;99452.34;4836001;29;45533;-89
2023/01/08 08:58:24;;;;;;;;;0.75;0.75;;;;;8.16;100.00;99531.59;4845200;29;45548;-89
2023/01/08 09:00:50;;;;;;;;;0.00;0.00;;;;;7.38;100.00;99379.28;4854698;29;48060;-90
2023/01/08 09:03:23;;;;;;;;;0.50;0.50;;;;;8.30;100.00;99524.16;4845919;29;45565;-90
2023/01/08 09:34:00;;;;;;;;;1.00;0.00;;;;;9.30;96.94;99517.78;4860727;29;45362;-91
2023/01/08 09:43:58;;;;;;;;;1.75;0.00;;;;;8.79;97.01;99426.22;4790183;29;45273;-92
2023/01/08 09:47:08;;;;;;;;;1.00;0.00;;;;;7.88;97.42;99297.28;4747130;30;45501;-94
2023/01/08 09:50:50;;;;;;;;;2.00;0.00;;;;;9.43;96.29;99542.84;4733960;29;45415;-92
2023/01/08 09:54:22;;;;;;;;;;;;;;;;;;;;;
